Time;durP1;ratioP1;P1;durP2;ratioP2;P2;SDS_P1;SDS_P2;PMS_P1;PMS_P2;Temp;Humidity;BMP_temperature;BMP_pressure;BME280_temperature;BME280_humidity;BME280_pressure;Samples;Min_cycle;Max_cycle;Signal;HPM_P1;HPM_P2
2024/04/04 12:58:52;;;;;;;13.30;1.50;;;;;;;;;;5008698;27;99695;-50
2024/04/04 13:01:17;;;;;;;14.38;2.00;;;;;;;;;;4985691;28;101297;-49
2024/04/04 13:03:42;;;;;;;12.75;1.50;;;;;;;;;;4977678;28;99720;-50
2024/04/04 13:06:09;;;;;;;13.23;1.50;;;;;;;;;;4971625;28;100886;-51
2024/04/04 13:08:35;;;;;;;12.38;1.83;;;;;;;;;;4970815;28;100175;-54
2024/04/04 13:11:00;;;;;;;14.20;2.15;;;;;;;;;;4973606;28;100682;-53
2024/04/04 13:13:25;;;;;;;19.63;2.03;;;;;;;;;;4972985;28;101126;-50
2024/04/04 13:15:51;;;;;;;15.20;1.95;;;;;;;;;;4978800;28;102326;-48
2024/04/04 13:18:16;;;;;;;12.85;1.30;;;;;;;;;;4978731;28;101167;-50
2024/04/04 13:20:41;;;;;;;15.65;1.83;;;;;;;;;;4973619;28;101436;-48
2024/04/04 13:23:07;;;;;;;14.82;1.77;;;;;;;;;;4967684;28;99690;-52
2024/04/04 13:25:32;;;;;;;13.48;1.92;;;;;;;;;;4974233;28;100921;-52
2024/04/04 13:27:58;;;;;;;12.88;1.40;;;;;;;;;;4957912;28;100121;-53
2024/04/04 13:30:23;;;;;;;13.98;1.92;;;;;;;;;;4974160;28;99967;-50
2024/04/04 13:32:48;;;;;;;13.05;1.35;;;;;;;;;;4971604;28;100161;-51
2024/04/04 13:35:14;;;;;;;10.98;1.27;;;;;;;;;;4965193;28;101342;-51
2024/04/04 13:37:41;;;;;;;13.25;1.80;;;;;;;;;;4976895;28;101176;-50
2024/04/04 13:40:08;;;;;;;12.18;1.17;;;;;;;;;;4976436;28;100344;-50
2024/04/04 13:42:37;;;;;;;15.38;2.03;;;;;;;;;;4976962;28;100046;-50
2024/04/04 13:45:06;;;;;;;12.30;1.85;;;;;;;;;;4971848;28;100270;-51
2024/04/04 13:47:34;;;;;;;20.95;2.35;;;;;;;;;;4974759;28;100123;-50
2024/04/04 13:50:00;;;;;;;17.23;2.03;;;;;;;;;;4968565;28;100832;-51
2024/04/04 13:52:25;;;;;;;15.27;1.67;;;;;;;;;;4985811;28;100885;-51
2024/04/04 13:54:51;;;;;;;12.63;1.73;;;;;;;;;;4973417;28;100115;-51
2024/04/04 13:57:16;;;;;;;18.52;1.92;;;;;;;;;;4981714;28;99986;-50
2024/04/04 13:59:41;;;;;;;12.35;1.60;;;;;;;;;;4987566;28;100246;-50
2024/04/04 14:02:10;;;;;;;14.85;1.50;;;;;;;;;;4971419;28;101211;-51
2024/04/04 14:04:36;;;;;;;16.92;1.92;;;;;;;;;;4998576;28;100234;-50
2024/04/04 14:07:03;;;;;;;13.68;1.67;;;;;;;;;;4994128;28;100164;-50
2024/04/04 14:09:32;;;;;;;13.25;1.58;;;;;;;;;;4983644;28;99698;-51
2024/04/04 14:11:58;;;;;;;15.93;1.83;;;;;;;;;;4985114;28;101474;-49
2024/04/04 14:14:24;;;;;;;13.27;1.80;;;;;;;;;;4983568;28;100077;-51
2024/04/04 14:16:49;;;;;;;11.88;2.20;;;;;;;;;;4975837;28;99962;-54
2024/04/04 14:19:17;;;;;;;11.98;2.08;;;;;;;;;;4974180;28;100145;-50
2024/04/04 14:21:43;;;;;;;15.23;1.55;;;;;;;;;;4979037;28;100173;-50
2024/04/04 14:24:08;;;;;;;12.68;1.70;;;;;;;;;;4984315;28;99909;-54
2024/04/04 14:26:33;;;;;;;13.30;1.35;;;;;;;;;;4978774;28;108155;-53
2024/04/04 14:28:59;;;;;;;13.35;1.83;;;;;;;;;;4982883;28;100091;-55
2024/04/04 14:31:24;;;;;;;17.48;1.60;;;;;;;;;;4970691;28;100218;-52
2024/04/04 14:33:49;;;;;;;12.38;1.55;;;;;;;;;;4968416;28;105940;-51
2024/04/04 14:36:16;;;;;;;21.20;2.05;;;;;;;;;;4982744;28;100866;-52
2024/04/04 14:38:41;;;;;;;11.43;1.20;;;;;;;;;;4971904;28;100937;-52
2024/04/04 14:41:07;;;;;;;12.48;1.20;;;;;;;;;;4980283;28;100076;-51
2024/04/04 14:43:32;;;;;;;12.40;1.42;;;;;;;;;;4982621;28;99938;-51
2024/04/04 14:45:58;;;;;;;14.27;1.27;;;;;;;;;;4984762;28;101270;-51
2024/04/04 14:48:23;;;;;;;14.18;1.55;;;;;;;;;;4984235;28;101206;-50
2024/04/04 14:50:59;;;;;;;9.52;1.88;;;;;;;;;;4985432;28;100205;-52
2024/04/04 14:53:27;;;;;;;11.88;1.70;;;;;;;;;;4965240;28;101518;-51
2024/04/04 14:55:53;;;;;;;11.02;1.00;;;;;;;;;;4972777;28;100004;-51
2024/04/04 14:58:19;;;;;;;12.88;1.48;;;;;;;;;;4975555;28;100125;-50
2024/04/04 15:00:44;;;;;;;10.55;1.80;;;;;;;;;;4969571;28;100226;-52
2024/04/04 15:03:10;;;;;;;13.32;1.88;;;;;;;;;;4984787;28;99922;-52
2024/04/04 15:05:35;;;;;;;14.32;2.05;;;;;;;;;;4972453;28;100324;-52
2024/04/04 15:08:01;;;;;;;15.50;1.55;;;;;;;;;;4983870;28;100157;-52
2024/04/04 15:10:27;;;;;;;10.95;1.33;;;;;;;;;;4975800;28;100205;-50
2024/04/04 15:12:52;;;;;;;12.63;1.88;;;;;;;;;;4967776;28;100059;-48
2024/04/04 15:15:17;;;;;;;13.80;1.63;;;;;;;;;;4974704;28;100105;-48
2024/04/04 15:17:42;;;;;;;11.45;1.02;;;;;;;;;;4970689;28;101213;-52
2024/04/04 15:20:08;;;;;;;11.75;1.70;;;;;;;;;;4970946;28;100723;-50
2024/04/04 15:22:33;;;;;;;14.80;1.25;;;;;;;;;;4983459;28;100229;-51
2024/04/04 15:24:59;;;;;;;12.45;1.33;;;;;;;;;;4972324;28;101256;-48
2024/04/04 15:27:24;;;;;;;13.32;0.95;;;;;;;;;;4983982;28;100095;-51
2024/04/04 15:29:50;;;;;;;13.18;1.30;;;;;;;;;;4973409;28;103943;-50
2024/04/04 15:32:16;;;;;;;12.48;1.20;;;;;;;;;;4980165;28;100002;-49
2024/04/04 15:34:41;;;;;;;13.02;1.52;;;;;;;;;;4975503;28;100075;-51
2024/04/04 15:37:09;;;;;;;14.40;1.58;;;;;;;;;;4977969;28;100383;-50
2024/04/04 15:39:35;;;;;;;12.88;1.88;;;;;;;;;;4978947;28;101936;-51
2024/04/04 15:42:02;;;;;;;12.90;2.05;;;;;;;;;;4965324;28;99919;-50
2024/04/04 15:44:27;;;;;;;13.90;1.00;;;;;;;;;;4965538;28;100656;-49
2024/04/04 15:46:54;;;;;;;12.43;1.67;;;;;;;;;;4969002;28;100168;-50
2024/04/04 15:49:19;;;;;;;15.18;1.52;;;;;;;;;;4978187;28;99726;-51
2024/04/04 15:51:45;;;;;;;16.33;1.27;;;;;;;;;;4957831;28;100230;-50
2024/04/04 15:54:10;;;;;;;16.30;1.77;;;;;;;;;;4980824;28;100091;-51
2024/04/04 15:56:37;;;;;;;12.48;1.77;;;;;;;;;;4975520;28;102173;-51
2024/04/04 15:59:03;;;;;;;12.80;1.30;;;;;;;;;;4971896;28;100108;-50
2024/04/04 16:01:28;;;;;;;20.38;2.10;;;;;;;;;;4971742;28;99849;-51
2024/04/04 16:03:53;;;;;;;17.80;2.08;;;;;;;;;;4979954;28;103476;-48
2024/04/04 16:06:19;;;;;;;16.00;1.48;;;;;;;;;;4977658;28;100087;-48
2024/04/04 16:08:44;;;;;;;12.27;1.50;;;;;;;;;;4977464;28;99902;-50
2024/04/04 16:11:10;;;;;;;10.65;1.63;;;;;;;;;;4978620;28;102447;-50
2024/04/04 16:13:37;;;;;;;16.80;2.70;;;;;;;;;;4977940;28;100810;-50
2024/04/04 16:16:02;;;;;;;18.02;1.80;;;;;;;;;;4970126;28;100159;-50
2024/04/04 16:18:28;;;;;;;11.38;1.05;;;;;;;;;;4967171;28;102441;-50
2024/04/04 16:20:53;;;;;;;13.45;2.15;;;;;;;;;;4973654;28;101973;-52
2024/04/04 16:23:18;;;;;;;15.18;1.83;;;;;;;;;;4978596;28;100827;-53
2024/04/04 16:25:44;;;;;;;18.27;2.45;;;;;;;;;;4976109;28;100515;-51
2024/04/04 16:28:10;;;;;;;13.18;1.23;;;;;;;;;;4973319;28;102100;-51
2024/04/04 16:30:35;;;;;;;11.90;1.35;;;;;;;;;;4976527;28;100170;-51
2024/04/04 16:33:02;;;;;;;18.15;1.48;;;;;;;;;;4981361;28;102755;-50
2024/04/04 16:35:27;;;;;;;10.90;1.33;;;;;;;;;;4974347;28;102338;-51
2024/04/04 16:37:53;;;;;;;17.52;1.67;;;;;;;;;;4971178;28;100530;-51
2024/04/04 16:40:18;;;;;;;11.73;1.70;;;;;;;;;;4977644;28;100141;-51
2024/04/04 16:42:43;;;;;;;12.30;1.58;;;;;;;;;;4976493;28;100517;-51
2024/04/04 16:45:09;;;;;;;14.27;1.40;;;;;;;;;;4969405;28;100987;-51
2024/04/04 16:47:35;;;;;;;11.32;1.35;;;;;;;;;;4970498;28;100419;-50
2024/04/04 16:50:01;;;;;;;10.73;0.68;;;;;;;;;;4979042;28;100138;-50
2024/04/04 16:52:26;;;;;;;10.48;0.90;;;;;;;;;;4969714;28;100000;-48
2024/04/04 16:54:51;;;;;;;7.57;0.50;;;;;;;;;;4969293;28;99807;-50
2024/04/04 16:57:16;;;;;;;10.98;1.13;;;;;;;;;;4974109;28;103870;-50
2024/04/04 16:59:43;;;;;;;11.75;1.23;;;;;;;;;;4978497;28;100660;-50
2024/04/04 17:02:08;;;;;;;12.07;1.20;;;;;;;;;;4978424;28;100197;-49
2024/04/04 17:04:34;;;;;;;15.13;2.03;;;;;;;;;;4972429;28;102007;-49
2024/04/04 17:07:00;;;;;;;15.48;1.73;;;;;;;;;;4977498;28;100226;-49
2024/04/04 17:09:26;;;;;;;14.55;1.23;;;;;;;;;;4970083;28;100144;-48
2024/04/04 17:11:51;;;;;;;10.57;1.88;;;;;;;;;;4975765;28;100317;-49
2024/04/04 17:14:17;;;;;;;8.38;1.25;;;;;;;;;;4976927;28;100081;-48
2024/04/04 17:16:42;;;;;;;12.95;1.42;;;;;;;;;;4977048;28;100269;-48
2024/04/04 17:19:08;;;;;;;12.43;1.45;;;;;;;;;;4971819;28;101504;-50
2024/04/04 17:21:34;;;;;;;15.95;1.58;;;;;;;;;;4977575;28;101330;-50
2024/04/04 17:24:00;;;;;;;13.00;1.30;;;;;;;;;;4978373;28;100305;-51
2024/04/04 17:26:26;;;;;;;12.85;1.23;;;;;;;;;;4977873;28;101683;-50
2024/04/04 17:28:52;;;;;;;11.70;1.55;;;;;;;;;;4969821;28;100284;-49
2024/04/04 17:31:17;;;;;;;13.50;1.55;;;;;;;;;;4974659;28;100644;-51
2024/04/04 17:33:42;;;;;;;15.93;1.83;;;;;;;;;;4976535;28;99800;-48
2024/04/04 17:36:08;;;;;;;11.07;1.27;;;;;;;;;;4977328;28;100252;-48
2024/04/04 17:38:33;;;;;;;13.35;1.58;;;;;;;;;;4977060;28;100347;-50
2024/04/04 17:41:00;;;;;;;15.43;1.60;;;;;;;;;;4977689;28;102069;-50
2024/04/04 17:43:26;;;;;;;12.88;1.60;;;;;;;;;;4970191;28;100301;-50
2024/04/04 17:45:52;;;;;;;14.23;2.38;;;;;;;;;;4961092;28;101871;-50
2024/04/04 17:48:17;;;;;;;16.42;2.28;;;;;;;;;;4978632;28;100242;-50
2024/04/04 17:50:42;;;;;;;11.60;1.65;;;;;;;;;;4979766;28;100493;-50
2024/04/04 17:53:08;;;;;;;18.35;2.00;;;;;;;;;;4977230;28;100246;-49
2024/04/04 17:55:33;;;;;;;12.82;2.03;;;;;;;;;;4977779;28;102233;-50
2024/04/04 17:58:02;;;;;;;15.20;2.67;;;;;;;;;;4980661;28;100185;-49
2024/04/04 18:00:28;;;;;;;14.53;1.53;;;;;;;;;;4979992;28;100302;-51
2024/04/04 18:02:53;;;;;;;12.52;1.52;;;;;;;;;;4976893;28;101734;-49
2024/04/04 18:05:19;;;;;;;14.38;1.60;;;;;;;;;;4976311;28;100532;-50
2024/04/04 18:07:44;;;;;;;9.98;1.20;;;;;;;;;;4963033;28;103109;-49
2024/04/04 18:10:10;;;;;;;14.82;1.55;;;;;;;;;;4980443;28;100141;-51
2024/04/04 18:12:35;;;;;;;14.20;1.50;;;;;;;;;;4979181;28;100525;-45
2024/04/04 18:15:00;;;;;;;16.90;2.00;;;;;;;;;;4975385;28;100174;-46
2024/04/04 18:17:26;;;;;;;19.30;1.42;;;;;;;;;;4974066;28;101125;-44
2024/04/04 18:19:51;;;;;;;9.18;1.00;;;;;;;;;;4966306;28;100524;-45
2024/04/04 18:22:17;;;;;;;15.23;1.33;;;;;;;;;;4976074;28;102009;-45
2024/04/04 18:24:42;;;;;;;15.40;2.38;;;;;;;;;;4978686;28;103487;-45
2024/04/04 18:27:07;;;;;;;9.38;1.27;;;;;;;;;;4977454;28;100183;-50
2024/04/04 18:29:32;;;;;;;10.35;1.00;;;;;;;;;;4981065;28;101650;-50
2024/04/04 18:31:58;;;;;;;16.00;1.02;;;;;;;;;;4977668;28;100000;-46
2024/04/04 18:34:23;;;;;;;9.57;1.48;;;;;;;;;;4980344;28;100238;-50
2024/04/04 18:36:49;;;;;;;14.73;1.30;;;;;;;;;;4970769;28;100095;-51
2024/04/04 18:39:14;;;;;;;8.82;0.90;;;;;;;;;;4974708;28;100829;-45
2024/04/04 18:41:40;;;;;;;8.98;1.02;;;;;;;;;;4981750;28;100629;-46
2024/04/04 18:44:06;;;;;;;7.50;0.73;;;;;;;;;;4977825;28;102025;-45
2024/04/04 18:46:31;;;;;;;7.03;0.45;;;;;;;;;;4974154;28;100174;-45
2024/04/04 18:48:57;;;;;;;11.35;1.02;;;;;;;;;;4970542;28;100192;-45
2024/04/04 18:51:23;;;;;;;7.13;1.00;;;;;;;;;;4980175;28;102410;-45
2024/04/04 18:53:48;;;;;;;8.88;0.75;;;;;;;;;;4963688;28;103020;-45
2024/04/04 18:56:13;;;;;;;8.18;0.73;;;;;;;;;;4976515;28;100063;-45
2024/04/04 18:58:39;;;;;;;5.78;0.70;;;;;;;;;;4972185;28;99836;-50
2024/04/04 19:01:04;;;;;;;7.00;1.10;;;;;;;;;;4973771;28;100355;-50
2024/04/04 19:03:33;;;;;;;7.40;0.80;;;;;;;;;;4986470;28;100225;-50
2024/04/04 19:05:58;;;;;;;8.35;0.70;;;;;;;;;;4979896;28;100244;-51
2024/04/04 19:08:23;;;;;;;6.65;0.70;;;;;;;;;;4981072;28;100083;-45
2024/04/04 19:10:50;;;;;;;7.35;0.60;;;;;;;;;;4976697;28;102623;-46
2024/04/04 19:13:16;;;;;;;7.30;0.70;;;;;;;;;;4972298;28;100821;-46
2024/04/04 19:15:56;;;;;;;5.88;0.70;;;;;;;;;;4978924;28;101006;-45
2024/04/04 19:18:24;;;;;;;;;;;;;;;;;;4979216;28;101139;-45
2024/04/04 19:20:56;;;;;;;9.13;1.13;;;;;;;;;;4977032;28;100140;-45
2024/04/04 19:23:26;;;;;;;9.90;0.68;;;;;;;;;;4982223;28;101667;-46
2024/04/04 19:25:58;;;;;;;6.80;0.75;;;;;;;;;;4977860;28;100243;-46
2024/04/04 19:28:24;;;;;;;4.90;0.60;;;;;;;;;;4979756;28;100070;-50
2024/04/04 19:30:54;;;;;;;7.40;0.90;;;;;;;;;;4981393;28;99764;-52
2024/04/04 19:33:21;;;;;;;7.43;0.50;;;;;;;;;;4979428;28;100201;-45
2024/04/04 19:35:47;;;;;;;8.63;1.17;;;;;;;;;;4971117;28;100109;-45
2024/04/04 19:38:14;;;;;;;9.13;1.55;;;;;;;;;;4980179;28;100205;-50
2024/04/04 19:40:39;;;;;;;10.38;0.77;;;;;;;;;;4980712;28;100714;-50
2024/04/04 19:43:05;;;;;;;7.30;0.90;;;;;;;;;;4982430;28;100086;-45
2024/04/04 19:45:30;;;;;;;11.88;1.52;;;;;;;;;;4981452;28;99763;-46
2024/04/04 19:47:55;;;;;;;9.52;1.38;;;;;;;;;;4973414;28;100153;-45
2024/04/04 19:50:20;;;;;;;10.90;0.88;;;;;;;;;;4979159;28;101174;-46
2024/04/04 19:52:46;;;;;;;9.57;0.90;;;;;;;;;;4974874;28;100343;-45
2024/04/04 19:55:12;;;;;;;7.45;0.45;;;;;;;;;;4965431;28;101478;-45
2024/04/04 19:57:37;;;;;;;12.00;1.60;;;;;;;;;;4971781;28;99912;-45
2024/04/04 20:00:03;;;;;;;11.52;0.60;;;;;;;;;;4980945;28;102662;-46
2024/04/04 20:02:29;;;;;;;8.30;0.73;;;;;;;;;;4973030;28;100284;-51
2024/04/04 20:04:54;;;;;;;7.97;0.50;;;;;;;;;;4975380;28;99785;-50
2024/04/04 20:07:20;;;;;;;12.95;0.88;;;;;;;;;;4973146;28;100466;-49
2024/04/04 20:09:45;;;;;;;10.40;0.70;;;;;;;;;;4979169;28;99973;-52
2024/04/04 20:12:10;;;;;;;9.48;0.73;;;;;;;;;;4976055;28;105170;-45
2024/04/04 20:14:36;;;;;;;6.95;0.70;;;;;;;;;;4980410;28;100550;-45
2024/04/04 20:17:01;;;;;;;9.95;1.35;;;;;;;;;;4977773;28;100470;-45
2024/04/04 20:19:26;;;;;;;9.73;0.60;;;;;;;;;;4979016;28;100308;-49
2024/04/04 20:21:51;;;;;;;15.07;0.98;;;;;;;;;;4971130;28;104472;-50
2024/04/04 20:24:17;;;;;;;7.93;0.93;;;;;;;;;;4980184;28;100315;-45
2024/04/04 20:26:42;;;;;;;9.38;0.80;;;;;;;;;;4955330;28;100119;-45
2024/04/04 20:29:08;;;;;;;10.55;0.80;;;;;;;;;;4973001;28;100479;-45
2024/04/04 20:31:36;;;;;;;9.90;1.33;;;;;;;;;;4967937;28;100322;-45
2024/04/04 20:34:01;;;;;;;7.35;0.50;;;;;;;;;;4980037;28;100531;-49
2024/04/04 20:36:27;;;;;;;5.65;0.80;;;;;;;;;;4976729;28;99808;-49
2024/04/04 20:38:52;;;;;;;8.27;0.73;;;;;;;;;;4967073;28;100168;-50
2024/04/04 20:41:20;;;;;;;7.53;0.80;;;;;;;;;;4979050;28;100053;-49
2024/04/04 20:43:46;;;;;;;7.90;0.55;;;;;;;;;;4974891;28;100009;-45
2024/04/04 20:46:12;;;;;;;13.98;0.75;;;;;;;;;;4975166;28;100307;-45
2024/04/04 20:48:37;;;;;;;9.30;1.10;;;;;;;;;;4980650;28;101134;-49
2024/04/04 20:51:03;;;;;;;6.95;1.00;;;;;;;;;;4986794;28;100457;-49
2024/04/04 20:53:28;;;;;;;7.75;0.75;;;;;;;;;;4969924;28;100102;-45
2024/04/04 20:55:55;;;;;;;9.98;0.90;;;;;;;;;;4971862;28;99882;-45
2024/04/04 20:58:22;;;;;;;7.65;0.70;;;;;;;;;;4954039;28;102646;-45
2024/04/04 21:00:47;;;;;;;9.57;1.10;;;;;;;;;;4975168;28;100966;-44
2024/04/04 21:03:13;;;;;;;4.38;0.50;;;;;;;;;;4973341;28;99824;-45
2024/04/04 21:05:38;;;;;;;10.40;0.85;;;;;;;;;;4980631;28;100182;-45
2024/04/04 21:08:04;;;;;;;7.40;0.55;;;;;;;;;;4980352;28;100092;-45
2024/04/04 21:10:29;;;;;;;8.45;0.70;;;;;;;;;;4969591;28;100315;-45
2024/04/04 21:12:55;;;;;;;6.80;0.80;;;;;;;;;;4967003;28;101235;-45
2024/04/04 21:15:20;;;;;;;11.43;1.52;;;;;;;;;;4954694;28;100180;-46
2024/04/04 21:17:47;;;;;;;7.93;0.80;;;;;;;;;;4977119;28;101385;-45
2024/04/04 21:20:12;;;;;;;9.52;0.90;;;;;;;;;;4980365;28;101434;-45
2024/04/04 21:22:37;;;;;;;5.15;0.63;;;;;;;;;;4972729;28;101474;-45
2024/04/04 21:25:05;;;;;;;9.63;1.65;;;;;;;;;;4983664;28;100149;-45
2024/04/04 21:27:30;;;;;;;10.05;1.15;;;;;;;;;;4974227;28;101168;-45
2024/04/04 21:29:56;;;;;;;12.32;1.40;;;;;;;;;;4978777;28;101049;-42
2024/04/04 21:32:21;;;;;;;7.20;0.90;;;;;;;;;;4980080;28;101960;-42
2024/04/04 21:34:46;;;;;;;8.60;1.42;;;;;;;;;;4979846;28;101134;-42
2024/04/04 21:37:15;;;;;;;10.05;0.68;;;;;;;;;;4978753;28;100240;-42
2024/04/04 21:39:41;;;;;;;11.43;0.77;;;;;;;;;;4971062;28;100583;-42
2024/04/04 21:42:06;;;;;;;7.90;0.90;;;;;;;;;;4969761;28;100614;-42
2024/04/04 21:44:31;;;;;;;5.30;0.68;;;;;;;;;;4984723;28;100324;-42
2024/04/04 21:46:57;;;;;;;7.82;1.05;;;;;;;;;;4978074;28;100042;-42
2024/04/04 21:49:22;;;;;;;12.32;0.70;;;;;;;;;;4973168;28;100304;-42
2024/04/04 21:51:47;;;;;;;9.23;0.80;;;;;;;;;;4984960;28;101041;-42
2024/04/04 21:54:13;;;;;;;11.68;1.35;;;;;;;;;;4984772;28;100309;-42
2024/04/04 21:56:38;;;;;;;9.27;0.77;;;;;;;;;;4975090;28;100340;-43
2024/04/04 21:59:03;;;;;;;7.90;1.13;;;;;;;;;;4972049;28;100090;-42
2024/04/04 22:01:29;;;;;;;9.43;0.60;;;;;;;;;;4972075;28;99991;-43
2024/04/04 22:03:54;;;;;;;12.85;1.35;;;;;;;;;;4981848;28;101148;-42
2024/04/04 22:06:19;;;;;;;7.60;0.60;;;;;;;;;;4982063;28;101909;-43
2024/04/04 22:08:44;;;;;;;5.03;0.80;;;;;;;;;;4981036;28;99900;-42
2024/04/04 22:11:10;;;;;;;11.40;1.23;;;;;;;;;;4979501;28;100152;-42
2024/04/04 22:13:35;;;;;;;13.18;1.00;;;;;;;;;;4977548;28;100297;-42
2024/04/04 22:16:01;;;;;;;11.43;1.00;;;;;;;;;;4980758;28;99895;-42
2024/04/04 22:18:30;;;;;;;8.68;1.20;;;;;;;;;;4982463;28;100704;-42
2024/04/04 22:20:56;;;;;;;8.68;1.10;;;;;;;;;;4979572;28;100077;-42
2024/04/04 22:23:22;;;;;;;10.90;2.05;;;;;;;;;;4981312;28;100167;-42
2024/04/04 22:25:47;;;;;;;10.68;0.93;;;;;;;;;;4984317;28;100102;-42
2024/04/04 22:28:13;;;;;;;11.60;1.55;;;;;;;;;;4972796;28;99760;-42
2024/04/04 22:30:38;;;;;;;9.82;1.60;;;;;;;;;;4982528;28;100317;-45
2024/04/04 22:33:04;;;;;;;10.80;0.90;;;;;;;;;;4975894;28;100177;-44
2024/04/04 22:35:29;;;;;;;10.15;1.17;;;;;;;;;;4982717;28;100059;-45
2024/04/04 22:37:55;;;;;;;6.65;0.77;;;;;;;;;;4985403;28;100153;-45
2024/04/04 22:40:20;;;;;;;10.70;1.30;;;;;;;;;;4981938;28;99964;-45
2024/04/04 22:42:47;;;;;;;5.85;0.90;;;;;;;;;;4983413;28;100703;-45
2024/04/04 22:45:12;;;;;;;7.85;0.80;;;;;;;;;;4976519;28;100130;-45
2024/04/04 22:47:38;;;;;;;8.93;0.95;;;;;;;;;;4974310;28;100009;-45
2024/04/04 22:50:05;;;;;;;7.57;0.88;;;;;;;;;;4982694;28;100642;-43
2024/04/04 22:52:31;;;;;;;9.13;1.00;;;;;;;;;;4978139;28;100151;-43
2024/04/04 22:54:56;;;;;;;8.88;0.63;;;;;;;;;;4956533;28;100106;-42
2024/04/04 22:57:21;;;;;;;7.85;0.80;;;;;;;;;;4959318;28;103118;-43
2024/04/04 22:59:47;;;;;;;13.45;1.35;;;;;;;;;;4984882;28;100150;-43
2024/04/04 23:02:12;;;;;;;10.77;1.50;;;;;;;;;;4981734;28;100226;-43
2024/04/04 23:04:37;;;;;;;8.98;0.90;;;;;;;;;;4980724;28;101308;-42
2024/04/04 23:07:02;;;;;;;14.57;1.23;;;;;;;;;;4979580;28;99766;-43
2024/04/04 23:09:30;;;;;;;13.13;1.42;;;;;;;;;;4979631;28;100286;-43
2024/04/04 23:11:55;;;;;;;12.75;1.10;;;;;;;;;;4974852;28;100231;-43
2024/04/04 23:14:20;;;;;;;8.25;1.00;;;;;;;;;;4981885;28;101230;-43
2024/04/04 23:16:46;;;;;;;13.18;1.45;;;;;;;;;;4980072;28;100345;-43
2024/04/04 23:19:12;;;;;;;8.60;1.20;;;;;;;;;;4971987;28;100707;-43
2024/04/04 23:21:37;;;;;;;8.13;1.23;;;;;;;;;;4979924;28;100001;-42
2024/04/04 23:24:03;;;;;;;12.35;1.27;;;;;;;;;;4974211;28;100173;-43
2024/04/04 23:26:28;;;;;;;9.27;1.80;;;;;;;;;;4973623;28;99882;-42
2024/04/04 23:28:54;;;;;;;11.35;1.50;;;;;;;;;;4972083;28;100353;-43
2024/04/04 23:31:20;;;;;;;10.90;1.42;;;;;;;;;;4977937;28;100204;-42
2024/04/04 23:33:46;;;;;;;8.50;1.00;;;;;;;;;;4982974;28;101173;-42
2024/04/04 23:36:11;;;;;;;10.90;0.90;;;;;;;;;;4978995;28;100146;-42
2024/04/04 23:38:38;;;;;;;9.00;1.50;;;;;;;;;;4972697;28;99995;-42
2024/04/04 23:41:04;;;;;;;12.50;1.35;;;;;;;;;;4988162;28;100012;-43
2024/04/04 23:43:29;;;;;;;10.65;1.58;;;;;;;;;;4976311;28;100082;-42
2024/04/04 23:46:01;;;;;;;7.82;1.10;;;;;;;;;;4977987;28;99747;-42
2024/04/04 23:48:27;;;;;;;9.05;1.20;;;;;;;;;;4971300;28;100281;-42
2024/04/04 23:50:56;;;;;;;7.53;1.20;;;;;;;;;;4974696;28;100016;-43
2024/04/04 23:53:22;;;;;;;11.95;1.25;;;;;;;;;;4978328;28;100207;-42
2024/04/04 23:55:47;;;;;;;7.40;1.00;;;;;;;;;;4967861;28;100275;-42
2024/04/04 23:58:13;;;;;;;6.85;0.90;;;;;;;;;;4971816;28;101337;-42
